Time;durP1;ratioP1;P1;durP2;ratioP2;P2;SDS_P1;SDS_P2;PMS_P1;PMS_P2;Temp;Humidity;BMP_temperature;BMP_pressure;BME280_temperature;BME280_humidity;BME280_pressure;Samples;Min_cycle;Max_cycle;Signal;HPM_P1;HPM_P2
2023/04/21 00:00:50;;;;;;;29.35;17.60;;;9.50;99.90;;;;;;6308794;22;20460;-69
2023/04/21 00:03:16;;;;;;;24.98;16.25;;;9.50;99.90;;;;;;6362729;22;20384;-69
2023/04/21 00:05:42;;;;;;;27.38;16.25;;;9.50;99.90;;;;;;6362543;22;20022;-69
2023/04/21 00:08:08;;;;;;;25.85;16.08;;;9.40;99.90;;;;;;6335732;22;20040;-69
2023/04/21 00:10:34;;;;;;;34.17;16.95;;;9.50;99.90;;;;;;6336016;22;20022;-69
2023/04/21 00:12:59;;;;;;;27.00;17.38;;;9.50;99.90;;;;;;6336251;22;20083;-69
2023/04/21 00:15:25;;;;;;;27.73;17.17;;;9.40;99.90;;;;;;6364671;22;20018;-69
2023/04/21 00:17:51;;;;;;;26.88;15.75;;;9.40;99.90;;;;;;6364606;22;20018;-69
2023/04/21 00:20:16;;;;;;;26.80;17.05;;;9.40;99.90;;;;;;6336591;22;20029;-70
2023/04/21 00:22:42;;;;;;;28.48;15.65;;;9.50;99.90;;;;;;6363932;22;20117;-70
2023/04/21 00:25:08;;;;;;;23.92;15.00;;;9.40;99.90;;;;;;6336509;22;20050;-70
2023/04/21 00:27:34;;;;;;;22.98;15.63;;;9.40;99.90;;;;;;6364703;22;20025;-70
2023/04/21 00:30:00;;;;;;;28.13;14.93;;;9.40;99.90;;;;;;6364468;22;20026;-70
2023/04/21 00:32:26;;;;;;;23.52;15.27;;;9.40;99.90;;;;;;6336386;22;20067;-70
2023/04/21 00:34:52;;;;;;;25.98;14.55;;;9.40;99.90;;;;;;6364740;22;20015;-70
2023/04/21 00:37:17;;;;;;;24.30;14.73;;;9.40;99.90;;;;;;6364145;22;20130;-70
2023/04/21 00:39:43;;;;;;;25.00;14.13;;;9.40;99.90;;;;;;6336597;22;20505;-70
2023/04/21 00:42:09;;;;;;;26.17;13.82;;;9.40;99.90;;;;;;6336453;22;20093;-70
2023/04/21 00:44:35;;;;;;;22.20;12.68;;;9.30;99.90;;;;;;6364531;22;20014;-69
2023/04/21 00:47:00;;;;;;;28.08;14.68;;;9.40;99.90;;;;;;6364956;22;20018;-70
2023/04/21 00:49:27;;;;;;;29.27;14.75;;;9.30;99.90;;;;;;6336363;22;20061;-69
2023/04/21 00:51:53;;;;;;;21.83;13.32;;;9.30;99.90;;;;;;6336141;22;20067;-69
2023/04/21 00:54:21;;;;;;;21.80;14.15;;;9.30;99.90;;;;;;6336484;22;20409;-69
2023/04/21 00:56:47;;;;;;;26.50;14.30;;;9.30;99.90;;;;;;6364982;22;20016;-70
2023/04/21 00:59:12;;;;;;;23.73;13.50;;;9.30;99.90;;;;;;6336501;22;20101;-70
2023/04/21 01:01:38;;;;;;;22.27;13.70;;;9.30;99.90;;;;;;6336316;22;20026;-70
2023/04/21 01:04:04;;;;;;;23.25;13.70;;;9.30;99.90;;;;;;6336045;22;20049;-70
2023/04/21 01:06:32;;;;;;;23.98;13.50;;;9.30;99.90;;;;;;6335419;22;20047;-70
2023/04/21 01:08:58;;;;;;;24.13;13.10;;;9.30;99.90;;;;;;6335496;22;20100;-69
2023/04/21 01:11:25;;;;;;;25.15;12.93;;;9.30;99.90;;;;;;6364246;22;20303;-69
2023/04/21 01:13:54;;;;;;;23.95;13.02;;;9.30;99.90;;;;;;6363953;22;20022;-70
2023/04/21 01:16:21;;;;;;;22.50;12.30;;;9.30;99.90;;;;;;6364213;22;20018;-70
2023/04/21 01:18:47;;;;;;;21.77;13.23;;;9.30;99.90;;;;;;6334218;22;20080;-70
2023/04/21 01:21:14;;;;;;;22.15;12.95;;;9.30;99.90;;;;;;6363671;22;20022;-69
2023/04/21 01:23:40;;;;;;;20.55;12.00;;;9.30;99.90;;;;;;6335783;22;20032;-70
2023/04/21 01:26:06;;;;;;;28.20;13.13;;;9.40;99.90;;;;;;6335983;22;20093;-70
2023/04/21 01:28:32;;;;;;;19.73;12.70;;;9.40;99.90;;;;;;6364347;22;20323;-69
2023/04/21 01:30:58;;;;;;;20.25;12.18;;;9.40;99.90;;;;;;6335842;22;20019;-69
2023/04/21 01:33:24;;;;;;;17.85;11.30;;;9.40;99.90;;;;;;6335811;22;20552;-70
2023/04/21 01:35:50;;;;;;;21.25;12.70;;;9.50;99.90;;;;;;6335607;22;20103;-69
2023/04/21 01:38:18;;;;;;;21.67;13.02;;;9.50;99.90;;;;;;6364545;22;20345;-68
2023/04/21 01:40:47;;;;;;;23.60;11.65;;;9.40;99.90;;;;;;6364278;22;20014;-69
2023/04/21 01:43:15;;;;;;;19.60;12.32;;;9.50;99.90;;;;;;6335999;22;20160;-68
2023/04/21 01:45:40;;;;;;;18.20;11.15;;;9.50;99.90;;;;;;6334834;22;20018;-69
2023/04/21 01:48:06;;;;;;;25.90;12.45;;;9.50;99.90;;;;;;6335408;22;20105;-69
2023/04/21 01:50:32;;;;;;;20.70;12.45;;;9.50;99.90;;;;;;6335078;22;20023;-69
2023/04/21 01:52:58;;;;;;;21.13;12.90;;;9.50;99.90;;;;;;6364274;22;20014;-70
2023/04/21 01:55:24;;;;;;;19.95;11.75;;;9.50;99.90;;;;;;6335894;22;20040;-70
2023/04/21 01:57:50;;;;;;;20.33;11.50;;;9.50;99.90;;;;;;6335286;22;20078;-70
2023/04/21 02:00:16;;;;;;;22.20;12.85;;;9.50;99.90;;;;;;6363903;22;20102;-70
2023/04/21 02:02:41;;;;;;;22.40;11.25;;;9.50;99.90;;;;;;6334836;22;20413;-69
2023/04/21 02:05:07;;;;;;;22.40;10.93;;;9.50;99.90;;;;;;6335027;22;20948;-69
2023/04/21 02:07:33;;;;;;;18.52;12.15;;;9.50;99.90;;;;;;6334896;22;20030;-69
2023/04/21 02:09:59;;;;;;;16.48;10.30;;;9.50;99.90;;;;;;6363253;22;20145;-69
2023/04/21 02:12:24;;;;;;;16.08;10.98;;;9.40;99.90;;;;;;6363744;22;20018;-69
2023/04/21 02:14:50;;;;;;;17.48;11.18;;;9.40;99.90;;;;;;6335510;22;20101;-69
2023/04/21 02:17:16;;;;;;;23.08;12.18;;;9.40;99.90;;;;;;6335821;22;20025;-68
2023/04/21 02:19:42;;;;;;;16.98;10.85;;;9.40;99.90;;;;;;6308962;22;20295;-69
2023/04/21 02:22:09;;;;;;;16.25;9.98;;;9.50;99.90;;;;;;6363191;22;20425;-69
2023/04/21 02:24:35;;;;;;;18.65;10.15;;;9.50;99.90;;;;;;6335266;22;20335;-69
2023/04/21 02:27:01;;;;;;;16.85;10.25;;;9.50;99.90;;;;;;6363002;22;20036;-69
2023/04/21 02:29:27;;;;;;;17.70;10.75;;;9.40;99.90;;;;;;6362895;22;20022;-69
2023/04/21 02:31:53;;;;;;;19.00;11.23;;;9.50;99.90;;;;;;6335436;22;20510;-69
2023/04/21 02:34:19;;;;;;;19.88;10.70;;;9.50;99.90;;;;;;6335469;22;20018;-70
2023/04/21 02:36:45;;;;;;;18.35;10.75;;;9.50;99.90;;;;;;6363679;22;20081;-70
2023/04/21 02:39:11;;;;;;;19.98;10.88;;;9.50;99.90;;;;;;6335148;22;20021;-70
2023/04/21 02:41:37;;;;;;;20.20;11.15;;;9.50;99.90;;;;;;6362741;22;20385;-70
2023/04/21 02:44:03;;;;;;;21.75;9.95;;;9.50;99.90;;;;;;6334901;22;20010;-70
2023/04/21 02:46:29;;;;;;;20.95;11.27;;;9.50;99.90;;;;;;6334177;22;20095;-70
2023/04/21 02:48:55;;;;;;;25.05;11.18;;;9.50;99.90;;;;;;6335094;22;20316;-70
2023/04/21 02:51:21;;;;;;;19.75;10.18;;;9.50;99.90;;;;;;6363201;22;20318;-69
2023/04/21 02:53:47;;;;;;;19.70;11.63;;;9.50;99.90;;;;;;6335177;22;20037;-70
2023/04/21 02:56:12;;;;;;;19.88;10.63;;;9.50;99.90;;;;;;6334691;22;20083;-70
2023/04/21 02:58:38;;;;;;;24.08;10.95;;;9.40;99.90;;;;;;6363265;22;20025;-70
2023/04/21 03:01:04;;;;;;;14.65;9.85;;;9.50;99.90;;;;;;6334591;22;20354;-70
2023/04/21 03:03:31;;;;;;;18.60;11.13;;;9.50;99.90;;;;;;6335215;22;20052;-69
2023/04/21 03:06:02;;;;;;;13.43;9.65;;;9.40;99.90;;;;;;6335281;22;20022;-69
2023/04/21 03:08:28;;;;;;;18.83;11.40;;;9.40;99.90;;;;;;6362444;22;20087;-69
2023/04/21 03:10:54;;;;;;;31.52;11.90;;;9.40;99.90;;;;;;6334810;22;20048;-70
2023/04/21 03:13:20;;;;;;;15.95;9.85;;;9.40;99.90;;;;;;6362775;22;20164;-69
2023/04/21 03:15:46;;;;;;;17.10;10.05;;;9.40;99.90;;;;;;6308442;22;20045;-69
2023/04/21 03:18:12;;;;;;;22.35;10.95;;;9.40;99.90;;;;;;6334639;22;20018;-69
2023/04/21 03:20:38;;;;;;;17.88;9.88;;;9.40;99.90;;;;;;6362979;22;20087;-69
2023/04/21 03:23:03;;;;;;;17.55;10.63;;;9.40;99.90;;;;;;6333729;22;20024;-69
2023/04/21 03:25:29;;;;;;;16.35;10.82;;;9.40;99.90;;;;;;6334644;22;20026;-70
2023/04/21 03:27:55;;;;;;;18.13;10.50;;;9.40;99.90;;;;;;6334347;22;20323;-70
2023/04/21 03:30:22;;;;;;;16.52;9.73;;;9.30;99.90;;;;;;6362026;22;20441;-69
2023/04/21 03:32:47;;;;;;;17.10;10.10;;;9.40;99.90;;;;;;6363052;22;20002;-68
2023/04/21 03:35:13;;;;;;;21.45;9.93;;;9.40;99.90;;;;;;6334215;22;20022;-69
2023/04/21 03:37:39;;;;;;;16.77;10.77;;;9.40;99.90;;;;;;6362897;22;20083;-70
2023/04/21 03:40:06;;;;;;;17.42;10.70;;;9.40;99.90;;;;;;6334673;22;20101;-70
2023/04/21 03:42:31;;;;;;;20.80;9.88;;;9.40;99.90;;;;;;6364434;22;20018;-70
2023/04/21 03:45:02;;;;;;;17.35;10.27;;;9.40;99.90;;;;;;6364813;22;20147;-70
2023/04/21 03:47:27;;;;;;;18.30;9.60;;;9.40;99.90;;;;;;6364171;22;20112;-70
2023/04/21 03:49:53;;;;;;;20.30;11.05;;;9.40;99.90;;;;;;6364637;22;20018;-70
2023/04/21 03:52:19;;;;;;;21.95;10.13;;;9.40;99.90;;;;;;6364648;22;20026;-70
2023/04/21 03:54:44;;;;;;;20.33;10.93;;;9.40;99.90;;;;;;6364531;22;20029;-70
2023/04/21 03:57:10;;;;;;;14.40;10.15;;;9.50;99.90;;;;;;6364687;22;20029;-70
2023/04/21 03:59:36;;;;;;;21.55;10.18;;;9.50;99.90;;;;;;6364075;22;20066;-70
2023/04/21 04:02:02;;;;;;;18.27;10.63;;;9.50;99.90;;;;;;6336580;22;20095;-69
2023/04/21 04:04:27;;;;;;;18.15;10.80;;;9.50;99.90;;;;;;6337105;22;20083;-69
2023/04/21 04:06:53;;;;;;;15.65;9.63;;;9.50;99.90;;;;;;6336809;22;20026;-69
2023/04/21 04:09:19;;;;;;;22.10;10.40;;;9.50;99.90;;;;;;6336589;22;20476;-70
2023/04/21 04:11:45;;;;;;;12.85;9.02;;;9.50;99.90;;;;;;6364576;22;20037;-69
2023/04/21 04:14:10;;;;;;;16.48;9.80;;;9.50;99.90;;;;;;6364318;22;20029;-70
2023/04/21 04:16:36;;;;;;;18.58;10.25;;;9.50;99.90;;;;;;6336916;22;20018;-69
2023/04/21 04:19:02;;;;;;;17.42;10.68;;;9.50;99.90;;;;;;6364929;22;20025;-69
2023/04/21 04:21:28;;;;;;;15.73;9.52;;;9.40;99.90;;;;;;6337143;22;20029;-69
2023/04/21 04:23:54;;;;;;;20.98;10.52;;;9.40;99.90;;;;;;6311060;22;20026;-69
2023/04/21 04:26:24;;;;;;;18.63;10.50;;;9.40;99.90;;;;;;6365750;22;20051;-69
2023/04/21 04:28:51;;;;;;;17.92;9.93;;;9.40;99.90;;;;;;6364406;22;20030;-69
2023/04/21 04:31:16;;;;;;;19.73;11.02;;;9.40;99.90;;;;;;6365151;22;20026;-69
2023/04/21 04:33:43;;;;;;;14.27;10.57;;;9.40;99.90;;;;;;6336456;22;20010;-70
2023/04/21 04:36:10;;;;;;;16.40;10.00;;;9.40;99.90;;;;;;6365521;22;20034;-69
2023/04/21 04:38:37;;;;;;;21.98;9.63;;;9.30;99.90;;;;;;6365291;22;20011;-69
2023/04/21 04:41:03;;;;;;;18.70;9.75;;;9.30;99.90;;;;;;6335742;22;20102;-69
2023/04/21 04:43:32;;;;;;;19.35;10.32;;;9.30;99.90;;;;;;6364327;22;20022;-69
2023/04/21 04:45:59;;;;;;;18.15;10.52;;;9.30;99.90;;;;;;6336289;22;20057;-69
2023/04/21 04:48:25;;;;;;;16.92;10.05;;;9.20;99.90;;;;;;6364177;22;20023;-69
2023/04/21 04:50:50;;;;;;;16.65;9.63;;;9.20;99.90;;;;;;6364416;22;20026;-69
2023/04/21 04:53:16;;;;;;;17.92;10.30;;;9.30;99.90;;;;;;6335158;22;20074;-69
2023/04/21 04:55:42;;;;;;;13.50;9.57;;;9.20;99.90;;;;;;6310037;22;20021;-69
2023/04/21 04:58:07;;;;;;;13.88;9.52;;;9.20;99.90;;;;;;6364394;22;20093;-69
2023/04/21 05:00:33;;;;;;;14.63;10.15;;;9.20;99.90;;;;;;6336116;22;20031;-69
2023/04/21 05:02:59;;;;;;;14.05;9.52;;;9.20;99.90;;;;;;6336206;22;20061;-69
2023/04/21 05:05:25;;;;;;;18.38;11.25;;;9.30;99.90;;;;;;6364271;22;20503;-69
2023/04/21 05:17:43;;;;;;;17.63;10.65;;;9.40;99.90;;;;;;6303043;22;20056;-74
2023/04/21 05:20:09;;;;;;;;;;;9.50;99.90;;;;;;6292842;22;20190;-74
2023/04/21 05:22:38;;;;;;;14.70;9.30;;;9.60;99.90;;;;;;6275491;22;19996;-74
2023/04/21 05:25:05;;;;;;;17.88;9.25;;;9.60;99.90;;;;;;6301529;22;20732;-74
2023/04/21 05:27:33;;;;;;;19.38;9.88;;;9.70;99.90;;;;;;6303561;22;20023;-74
2023/04/21 05:30:00;;;;;;;14.30;9.35;;;9.70;99.90;;;;;;6303460;22;20027;-74
2023/04/21 05:32:25;;;;;;;17.15;9.80;;;9.70;99.90;;;;;;6302866;22;20118;-73
2023/04/21 05:34:51;;;;;;;16.73;9.77;;;9.80;99.90;;;;;;6301037;22;20583;-74
2023/04/21 05:37:17;;;;;;;15.52;9.85;;;9.80;99.90;;;;;;6301433;22;20027;-75
2023/04/21 05:39:42;;;;;;;18.52;10.43;;;9.90;99.90;;;;;;6302911;22;20020;-74
2023/04/21 05:42:12;;;;;;;20.33;9.27;;;10.00;99.90;;;;;;6300854;22;20030;-74
2023/04/21 05:44:38;;;;;;;13.23;9.18;;;10.10;99.90;;;;;;6301376;22;20011;-74
2023/04/21 05:47:05;;;;;;;17.48;9.82;;;10.10;99.90;;;;;;6300709;22;20106;-74
2023/04/21 05:49:31;;;;;;;13.07;9.07;;;10.10;99.90;;;;;;6274639;22;20020;-74
2023/04/21 05:51:56;;;;;;;19.73;10.27;;;10.10;99.90;;;;;;6301296;22;20064;-74
2023/04/21 05:54:22;;;;;;;16.88;9.07;;;10.20;99.90;;;;;;6277184;22;20030;-75
2023/04/21 05:56:48;;;;;;;17.33;9.05;;;10.20;99.90;;;;;;6303790;22;20027;-74
2023/04/21 05:59:14;;;;;;;14.82;9.43;;;10.30;99.90;;;;;;6303835;22;20061;-74
2023/04/21 06:01:41;;;;;;;15.98;8.02;;;10.30;99.90;;;;;;6275298;22;20408;-74
2023/04/21 06:04:07;;;;;;;16.92;9.27;;;10.30;99.90;;;;;;6300926;22;20098;-74
2023/04/21 06:06:32;;;;;;;15.20;8.63;;;10.30;99.90;;;;;;6300879;22;20104;-74
2023/04/21 06:08:58;;;;;;;16.33;8.80;;;10.40;99.90;;;;;;6300803;22;20061;-74
2023/04/21 06:11:24;;;;;;;13.23;8.32;;;10.40;99.90;;;;;;6300235;22;20367;-74
2023/04/21 06:13:52;;;;;;;15.77;8.35;;;10.40;99.90;;;;;;6302700;22;20314;-74
2023/04/21 06:16:18;;;;;;;11.63;8.38;;;10.50;99.90;;;;;;6300959;22;20062;-74
2023/04/21 06:18:44;;;;;;;19.48;8.93;;;10.50;99.90;;;;;;6302646;22;20023;-74
2023/04/21 06:21:10;;;;;;;15.30;8.95;;;10.60;99.90;;;;;;6301093;22;20470;-74
2023/04/21 06:23:35;;;;;;;13.75;8.30;;;10.60;99.90;;;;;;6302671;22;20027;-74
2023/04/21 06:26:04;;;;;;;12.75;7.93;;;10.60;99.90;;;;;;6300205;22;20383;-74
2023/04/21 06:28:33;;;;;;;14.15;8.02;;;10.70;99.90;;;;;;6300907;22;20027;-73
2023/04/21 06:31:00;;;;;;;15.50;8.60;;;10.80;99.90;;;;;;6325919;22;20661;-69
2023/04/21 06:33:26;;;;;;;15.60;9.00;;;10.90;99.90;;;;;;6299924;22;20019;-69
2023/04/21 06:35:56;;;;;;;15.93;9.80;;;10.90;99.90;;;;;;6300147;22;20022;-70
2023/04/21 06:38:21;;;;;;;17.92;8.50;;;11.00;99.90;;;;;;6325993;22;20026;-72
2023/04/21 06:40:47;;;;;;;12.63;8.38;;;11.00;99.90;;;;;;6301433;22;20046;-72
2023/04/21 06:43:13;;;;;;;13.73;8.50;;;11.00;99.90;;;;;;6300255;22;20015;-72
2023/04/21 06:45:39;;;;;;;13.95;8.07;;;11.00;99.90;;;;;;6300187;22;20102;-72
2023/04/21 06:48:05;;;;;;;17.13;8.18;;;11.00;99.90;;;;;;6300104;22;20102;-70
2023/04/21 06:50:30;;;;;;;15.63;7.93;;;11.00;99.90;;;;;;6299057;22;20027;-70
2023/04/21 06:52:56;;;;;;;15.43;8.88;;;11.00;99.90;;;;;;6301703;22;20015;-70
2023/04/21 06:55:22;;;;;;;14.18;8.85;;;11.00;99.90;;;;;;6300001;22;20053;-70
2023/04/21 06:57:47;;;;;;;14.85;8.57;;;11.00;99.90;;;;;;6301606;22;20057;-70
2023/04/21 07:00:14;;;;;;;11.82;7.90;;;11.00;99.90;;;;;;6301557;22;20019;-70
2023/04/21 07:02:40;;;;;;;20.05;8.88;;;11.00;99.90;;;;;;6299978;22;20080;-70
2023/04/21 07:05:06;;;;;;;26.60;9.90;;;11.00;99.90;;;;;;6302177;22;20037;-70
2023/04/21 07:07:33;;;;;;;12.48;8.23;;;11.10;99.90;;;;;;6326285;22;20094;-70
2023/04/21 07:09:59;;;;;;;13.25;8.43;;;11.10;99.90;;;;;;6302441;22;20030;-70
2023/04/21 07:12:24;;;;;;;20.70;9.43;;;11.10;99.90;;;;;;6302435;22;20393;-70
2023/04/21 07:14:50;;;;;;;21.88;9.18;;;11.10;99.90;;;;;;6301993;22;20058;-70
2023/04/21 07:17:16;;;;;;;18.83;8.93;;;11.10;99.90;;;;;;6301651;22;20523;-70
2023/04/21 07:19:45;;;;;;;14.82;8.77;;;11.20;99.90;;;;;;6302216;22;20019;-70
2023/04/21 07:22:10;;;;;;;15.50;9.30;;;11.20;99.90;;;;;;6302401;22;20101;-70
2023/04/21 07:24:36;;;;;;;14.88;9.35;;;11.20;99.90;;;;;;6304772;22;20011;-70
2023/04/21 07:27:02;;;;;;;16.15;9.60;;;11.30;99.90;;;;;;6304579;22;20031;-69
2023/04/21 07:29:28;;;;;;;14.15;8.65;;;11.30;99.90;;;;;;6302260;22;20019;-70
2023/04/21 07:31:55;;;;;;;15.02;8.32;;;11.30;99.90;;;;;;6302211;22;20026;-69
2023/04/21 07:34:21;;;;;;;17.05;8.35;;;11.40;99.90;;;;;;6304343;22;20444;-70
2023/04/21 07:36:46;;;;;;;18.10;8.65;;;11.40;99.90;;;;;;6303671;22;20047;-70
2023/04/21 07:39:12;;;;;;;14.27;8.88;;;11.50;99.90;;;;;;6276494;22;20023;-70
2023/04/21 07:41:38;;;;;;;14.30;9.27;;;11.50;99.90;;;;;;6303716;22;20011;-73
2023/04/21 07:44:03;;;;;;;13.20;8.77;;;11.70;99.90;;;;;;6304625;22;20104;-73
2023/04/21 07:46:30;;;;;;;15.48;8.93;;;11.70;99.90;;;;;;6303914;22;20023;-74
2023/04/21 07:48:59;;;;;;;17.33;9.45;;;11.70;99.90;;;;;;6302608;22;20023;-74
2023/04/21 07:51:26;;;;;;;13.30;8.88;;;11.80;99.90;;;;;;6302123;22;20717;-75
2023/04/21 07:53:52;;;;;;;13.00;9.63;;;11.80;99.90;;;;;;6301923;22;20027;-74
2023/04/21 07:56:18;;;;;;;16.52;9.30;;;11.80;99.90;;;;;;6302291;22;20327;-74
2023/04/21 07:58:44;;;;;;;17.30;9.27;;;11.90;99.90;;;;;;6303914;22;20062;-74
2023/04/21 08:01:10;;;;;;;15.55;8.63;;;11.90;99.90;;;;;;6302507;22;20026;-73
2023/04/21 08:03:36;;;;;;;14.35;9.45;;;12.00;99.90;;;;;;6302220;22;20446;-73
2023/04/21 08:06:02;;;;;;;17.95;8.55;;;12.00;99.90;;;;;;6303417;22;20034;-72
2023/04/21 08:08:27;;;;;;;15.50;9.32;;;12.00;99.90;;;;;;6302333;22;20087;-73
2023/04/21 08:10:53;;;;;;;21.15;8.65;;;12.10;99.90;;;;;;6273569;22;20030;-73
2023/04/21 08:13:23;;;;;;;18.83;8.95;;;12.10;99.90;;;;;;6301909;22;20653;-73
2023/04/21 08:15:50;;;;;;;24.67;9.00;;;12.20;99.90;;;;;;6301263;22;20039;-73
2023/04/21 08:18:17;;;;;;;17.75;9.45;;;12.20;99.90;;;;;;6304643;22;20137;-73
2023/04/21 08:20:45;;;;;;;13.73;8.55;;;12.30;99.90;;;;;;6306522;22;20011;-73
2023/04/21 08:23:11;;;;;;;13.63;8.95;;;12.40;99.90;;;;;;6306961;22;20327;-73
2023/04/21 08:25:37;;;;;;;20.05;8.15;;;12.50;99.90;;;;;;6281524;22;20021;-73
2023/04/21 08:28:05;;;;;;;20.02;9.48;;;12.60;99.90;;;;;;6307058;22;20026;-72
2023/04/21 08:30:30;;;;;;;16.90;9.30;;;12.70;99.90;;;;;;6307235;22;20445;-73
2023/04/21 08:32:56;;;;;;;19.00;9.18;;;12.80;99.90;;;;;;6307680;22;20011;-72
2023/04/21 08:35:22;;;;;;;18.20;9.27;;;12.80;99.90;;;;;;6335201;22;20072;-72
2023/04/21 08:37:48;;;;;;;16.67;10.25;;;12.90;99.90;;;;;;6335082;22;20106;-72
2023/04/21 08:40:14;;;;;;;14.57;8.25;;;13.00;99.90;;;;;;6334681;22;20466;-72
2023/04/21 08:42:40;;;;;;;21.60;10.02;;;13.10;99.90;;;;;;6306913;22;20751;-72
2023/04/21 08:45:06;;;;;;;15.07;9.63;;;13.10;99.90;;;;;;6307157;22;20051;-72
2023/04/21 08:47:32;;;;;;;15.57;9.10;;;13.20;99.90;;;;;;6306943;22;20022;-72
2023/04/21 08:49:58;;;;;;;15.05;9.07;;;13.30;99.90;;;;;;6306880;22;20025;-72
2023/04/21 08:52:24;;;;;;;21.08;9.90;;;13.60;99.90;;;;;;6334136;22;20019;-73
2023/04/21 08:54:52;;;;;;;16.95;10.07;;;13.70;99.90;;;;;;6306622;22;20549;-73
2023/04/21 08:57:21;;;;;;;14.60;8.45;;;13.90;99.90;;;;;;6306116;22;20376;-73
2023/04/21 08:59:47;;;;;;;15.25;9.13;;;14.00;99.90;;;;;;6306682;22;20438;-76
2023/04/21 09:02:16;;;;;;;16.10;9.20;;;13.90;99.90;;;;;;6306700;22;20023;-75
2023/04/21 09:04:47;;;;;;;19.35;9.07;;;14.00;99.90;;;;;;6305878;22;20023;-74
2023/04/21 09:07:48;;;;;;;15.43;9.45;;;13.90;99.90;;;;;;6333202;22;20064;-74
2023/04/21 09:10:20;;;;;;;14.10;8.57;;;13.90;99.90;;;;;;6268146;22;20027;-72
2023/04/21 09:12:50;;;;;;;13.30;9.27;;;14.00;99.90;;;;;;6323911;22;20019;-71
2023/04/21 09:15:16;;;;;;;27.27;10.18;;;14.00;99.90;;;;;;6306222;22;20357;-71
2023/04/21 09:17:44;;;;;;;22.00;9.43;;;14.10;99.90;;;;;;6333795;22;20085;-72
2023/04/21 09:20:16;;;;;;;15.98;9.80;;;14.10;99.90;;;;;;6333890;22;20029;-74
2023/04/21 09:22:43;;;;;;;15.85;9.30;;;14.20;99.90;;;;;;6280773;22;20106;-74
2023/04/21 09:25:09;;;;;;;13.30;8.57;;;14.20;99.90;;;;;;6334402;22;20022;-73
2023/04/21 09:27:36;;;;;;;19.40;9.85;;;14.30;99.90;;;;;;6306846;22;20021;-74
2023/04/21 09:30:06;;;;;;;21.48;9.18;;;14.40;99.90;;;;;;6334240;22;20034;-73
2023/04/21 09:32:39;;;;;;;14.10;8.98;;;14.50;99.90;;;;;;6306134;22;20022;-73
2023/04/21 09:35:11;;;;;;;15.05;8.38;;;14.70;99.90;;;;;;6306546;22;20018;-74
2023/04/21 09:37:38;;;;;;;21.95;9.43;;;15.00;99.90;;;;;;6334670;22;20022;-74
2023/04/21 09:40:05;;;;;;;13.20;8.48;;;15.20;99.90;;;;;;6334005;22;20019;-73
2023/04/21 09:42:32;;;;;;;15.40;8.60;;;15.40;99.90;;;;;;6306506;22;20500;-74
2023/04/21 09:44:58;;;;;;;13.88;8.93;;;15.40;99.90;;;;;;6280376;22;20029;-73
2023/04/21 09:47:28;;;;;;;18.20;8.60;;;15.40;99.90;;;;;;6306188;22;20089;-74
2023/04/21 09:49:56;;;;;;;20.27;9.27;;;15.70;99.90;;;;;;6334272;22;20084;-73
2023/04/21 09:52:26;;;;;;;15.43;8.93;;;15.70;99.90;;;;;;6306391;22;20057;-74
2023/04/21 09:54:59;;;;;;;17.15;9.55;;;15.80;99.90;;;;;;6280613;22;20045;-73
2023/04/21 09:57:26;;;;;;;13.23;9.43;;;15.80;99.90;;;;;;6332290;22;20049;-73
2023/04/21 10:00:00;;;;;;;17.33;9.18;;;15.70;99.90;;;;;;6280598;22;20094;-73
2023/04/21 10:02:29;;;;;;;13.63;8.77;;;15.60;99.90;;;;;;6332059;22;20060;-73
2023/04/21 10:04:55;;;;;;;15.52;8.27;;;15.80;99.90;;;;;;6306299;22;20015;-73
2023/04/21 10:07:21;;;;;;;15.93;9.07;;;15.80;99.90;;;;;;6306199;22;20014;-73
2023/04/21 10:09:54;;;;;;;14.63;8.23;;;16.00;99.90;;;;;;6333892;22;20022;-74
2023/04/21 10:12:21;;;;;;;16.77;9.00;;;15.90;99.90;;;;;;6334056;22;20022;-73
2023/04/21 10:14:52;;;;;;;16.23;9.27;;;16.00;99.90;;;;;;6306051;22;20422;-74
2023/04/21 10:17:24;;;;;;;14.23;8.55;;;16.20;99.90;;;;;;6305999;22;20018;-73
2023/04/21 10:19:57;;;;;;;17.52;9.75;;;16.10;99.90;;;;;;6305687;22;20092;-73
2023/04/21 10:22:34;;;;;;;13.82;8.20;;;16.00;99.90;;;;;;6333886;22;20029;-74
2023/04/21 10:25:02;;;;;;;16.05;8.45;;;16.00;99.90;;;;;;6306278;22;20398;-73
2023/04/21 10:27:36;;;;;;;16.15;8.77;;;15.90;99.90;;;;;;6333967;22;20023;-73
2023/04/21 10:30:17;;;;;;;19.08;9.10;;;16.00;99.90;;;;;;6306130;22;20019;-73
2023/04/21 10:32:44;;;;;;;13.18;9.10;;;16.00;99.90;;;;;;6305841;22;20637;-73
2023/04/21 10:35:16;;;;;;;15.45;8.63;;;16.30;99.90;;;;;;6334218;22;20046;-73
2023/04/21 10:37:42;;;;;;;19.60;10.13;;;16.40;99.90;;;;;;6335095;22;20088;-74
2023/04/21 10:40:29;;;;;;;16.05;8.45;;;16.40;99.90;;;;;;6334021;22;20526;-74
2023/04/21 10:42:55;;;;;;;15.77;9.73;;;16.30;99.90;;;;;;6334081;22;20030;-73
2023/04/21 10:45:24;;;;;;;17.35;9.65;;;16.40;99.90;;;;;;6305608;22;20014;-73
2023/04/21 10:47:52;;;;;;;15.05;8.48;;;16.40;99.90;;;;;;6306137;22;20021;-73
2023/04/21 10:50:28;;;;;;;19.30;9.38;;;16.40;99.90;;;;;;6280296;22;20061;-73
2023/04/21 10:53:12;;;;;;;21.17;9.50;;;16.40;99.90;;;;;;6306197;22;20524;-73
2023/04/21 10:55:38;;;;;;;15.23;8.38;;;16.50;99.90;;;;;;6306000;22;20389;-73
2023/04/21 10:58:08;;;;;;;12.10;8.60;;;16.60;99.90;;;;;;6331964;22;20104;-74
2023/04/21 11:00:36;;;;;;;16.10;9.70;;;16.70;99.90;;;;;;6333534;22;20023;-73
2023/04/21 11:03:04;;;;;;;18.05;9.07;;;16.70;99.90;;;;;;6333723;22;20555;-74
2023/04/21 11:05:34;;;;;;;14.25;9.25;;;16.90;99.90;;;;;;6333653;22;20030;-73
2023/04/21 11:08:05;;;;;;;19.13;8.73;;;16.90;99.90;;;;;;6334046;22;20014;-73
2023/04/21 11:10:52;;;;;;;13.02;7.97;;;16.90;99.90;;;;;;6333997;22;20088;-73
2023/04/21 11:13:27;;;;;;;14.27;8.25;;;16.70;99.90;;;;;;6280693;22;20045;-74
2023/04/21 11:15:56;;;;;;;16.58;8.48;;;16.80;99.90;;;;;;6305797;22;20023;-73
2023/04/21 11:18:38;;;;;;;12.52;8.40;;;16.80;99.90;;;;;;6305917;22;20347;-74
2023/04/21 11:21:12;;;;;;;;;;;17.00;99.90;;;;;;6332999;22;20023;-73
2023/04/21 11:23:50;;;;;;;12.98;7.97;;;17.30;99.90;;;;;;6305660;22;19910;-73
2023/04/21 11:26:17;;;;;;;16.02;8.48;;;17.50;99.90;;;;;;6333657;22;20007;-73
2023/04/21 11:28:46;;;;;;;16.40;7.10;;;17.70;99.90;;;;;;6333353;22;20396;-73
2023/04/21 11:31:12;;;;;;;12.18;7.32;;;17.60;99.90;;;;;;6333514;22;20044;-73
2023/04/21 11:33:38;;;;;;;12.27;7.00;;;17.50;99.90;;;;;;6305697;22;20110;-74
2023/04/21 11:36:07;;;;;;;14.52;7.85;;;17.40;99.90;;;;;;6305701;22;20023;-73
2023/04/21 11:38:40;;;;;;;12.27;7.70;;;17.50;99.90;;;;;;6305741;22;20019;-73
2023/04/21 11:41:06;;;;;;;13.63;7.00;;;17.40;99.90;;;;;;6305534;22;20026;-73
2023/04/21 11:43:32;;;;;;;15.07;7.05;;;17.50;99.90;;;;;;6305381;22;20338;-74
2023/04/21 11:46:43;;;;;;;14.60;7.75;;;17.60;99.90;;;;;;6305584;22;20029;-73
2023/04/21 11:49:13;;;;;;;12.70;6.80;;;17.70;99.90;;;;;;6242439;22;20157;-74
2023/04/21 11:51:43;;;;;;;13.32;6.70;;;18.00;99.90;;;;;;6242500;22;20287;-73
2023/04/21 11:54:11;;;;;;;12.00;6.90;;;18.20;99.90;;;;;;6278290;22;20632;-74
2023/04/21 11:56:45;;;;;;;14.70;6.40;;;18.20;99.90;;;;;;6333871;22;20018;-73
2023/04/21 11:59:12;;;;;;;11.48;6.82;;;18.30;99.90;;;;;;6305413;22;20019;-73
2023/04/21 12:01:51;;;;;;;9.52;6.85;;;18.10;99.90;;;;;;6305963;22;20610;-74
2023/04/21 12:04:21;;;;;;;12.07;5.80;;;18.00;99.90;;;;;;6336144;22;20095;-73
2023/04/21 12:07:00;;;;;;;18.52;7.05;;;18.00;99.90;;;;;;6307989;22;20067;-74
2023/04/21 12:09:27;;;;;;;9.65;6.13;;;17.80;99.90;;;;;;6308131;22;20018;-74
2023/04/21 12:11:54;;;;;;;14.70;6.03;;;17.80;99.90;;;;;;6335426;22;20021;-74
2023/04/21 12:14:22;;;;;;;13.20;5.82;;;17.70;99.90;;;;;;6307378;22;20006;-74
2023/04/21 12:16:52;;;;;;;20.17;6.60;;;17.80;99.90;;;;;;6307384;22;20094;-74
2023/04/21 12:19:39;;;;;;;17.30;7.15;;;17.80;99.90;;;;;;6307146;22;20413;-74
2023/04/21 12:22:08;;;;;;;9.38;6.28;;;17.90;99.90;;;;;;6307203;22;20350;-73
2023/04/21 12:24:35;;;;;;;11.30;5.43;;;17.90;99.90;;;;;;6307306;22;20023;-74
2023/04/21 12:27:01;;;;;;;12.63;5.18;;;17.90;99.90;;;;;;6306987;22;20026;-74
2023/04/21 12:29:27;;;;;;;10.63;6.28;;;18.00;99.90;;;;;;6334813;22;20442;-74
2023/04/21 12:31:53;;;;;;;16.70;6.75;;;18.00;99.90;;;;;;6307029;22;20026;-73
2023/04/21 12:34:18;;;;;;;12.63;6.28;;;17.80;99.90;;;;;;6307169;22;20027;-74
2023/04/21 12:36:44;;;;;;;14.55;7.07;;;18.00;99.90;;;;;;6334874;22;20023;-74
2023/04/21 12:39:10;;;;;;;13.30;7.22;;;18.00;99.90;;;;;;6334801;22;20813;-73
2023/04/21 12:41:36;;;;;;;12.10;6.57;;;18.00;99.90;;;;;;6306631;22;20050;-74
2023/04/21 12:44:02;;;;;;;11.05;6.53;;;18.10;99.90;;;;;;6281217;22;20034;-73
2023/04/21 12:46:27;;;;;;;14.27;6.75;;;18.10;99.90;;;;;;6306898;22;20026;-73
2023/04/21 12:48:53;;;;;;;9.52;6.10;;;18.10;99.90;;;;;;6307112;22;20157;-73